createdAt,value
2018-06-05T00:00:34.974Z,76.96
2018-06-05T00:03:04.067Z,77.17
2018-06-05T00:05:33.240Z,77.45
2018-06-05T00:08:02.287Z,77.24
2018-06-05T00:10:31.275Z,78.37
2018-06-05T00:13:00.238Z,78.41
2018-06-05T00:15:29.370Z,78.43
2018-06-05T00:17:58.546Z,78.23
2018-06-05T00:20:27.984Z,78.24
2018-06-05T00:22:56.960Z,78.38
2018-06-05T00:25:26.151Z,78.77
2018-06-05T00:27:55.189Z,78.39
2018-06-05T00:30:24.309Z,78.34
2018-06-05T00:32:53.338Z,78.50
2018-06-05T00:35:22.920Z,78.87
2018-06-05T00:37:52.080Z,78.78
2018-06-05T00:40:21.119Z,78.30
2018-06-05T00:42:50.693Z,78.69
2018-06-05T00:45:19.624Z,77.82
2018-06-05T00:47:48.734Z,77.67
2018-06-05T00:50:17.912Z,77.63
2018-06-05T00:52:47.038Z,77.09
2018-06-05T00:55:16.019Z,77.12
2018-06-05T00:57:45.196Z,76.37
2018-06-05T01:00:14.178Z,76.18
2018-06-05T01:02:43.380Z,76.37
2018-06-05T01:05:12.473Z,76.57
2018-06-05T01:07:41.555Z,76.89
2018-06-05T01:10:10.560Z,76.76
2018-06-05T01:12:40.221Z,77.19
2018-06-05T01:15:09.214Z,76.99
2018-06-05T01:17:38.249Z,76.90
2018-06-05T01:20:07.932Z,77.02
2018-06-05T01:22:36.832Z,77.03
2018-06-05T01:25:05.950Z,77.30
2018-06-05T01:27:35.372Z,77.36
2018-06-05T01:30:04.427Z,77.57
2018-06-05T01:32:33.459Z,77.85
2018-06-05T01:35:02.986Z,77.89
2018-06-05T01:37:32.013Z,78.30
2018-06-05T01:40:01.134Z,78.35
2018-06-05T01:42:30.665Z,78.51
2018-06-05T01:44:59.699Z,78.61
2018-06-05T01:47:28.838Z,78.64
2018-06-05T01:49:57.988Z,78.42
2018-06-05T01:52:27.021Z,78.01
2018-06-05T01:54:56.155Z,78.12
2018-06-05T01:57:25.528Z,78.43
2018-06-05T01:59:54.607Z,78.38
2018-06-05T02:02:23.523Z,78.67
2018-06-05T02:04:52.983Z,78.83
2018-06-05T02:07:22.106Z,78.95
2018-06-05T02:09:51.108Z,79.20
2018-06-05T02:12:20.100Z,79.36
2018-06-05T02:14:49.046Z,78.13
2018-06-05T02:17:18.111Z,77.23
2018-06-05T02:19:47.156Z,77.16
2018-06-05T02:22:16.127Z,77.47
2018-06-05T02:24:45.116Z,77.54
2018-06-05T02:27:14.044Z,77.36
2018-06-05T02:29:43.390Z,76.84
2018-06-05T02:32:12.431Z,77.67
2018-06-05T02:34:41.419Z,77.96
2018-06-05T02:37:10.510Z,78.49
2018-06-05T02:39:39.482Z,78.60
2018-06-05T02:42:08.476Z,78.52
2018-06-05T02:44:37.879Z,78.46
2018-06-05T02:47:06.891Z,78.96
2018-06-05T02:49:35.911Z,78.85
2018-06-05T02:52:05.379Z,78.79
2018-06-05T02:54:34.280Z,78.23
2018-06-05T02:57:03.217Z,79.28
2018-06-05T02:59:32.799Z,78.63
2018-06-05T03:02:01.824Z,78.81
2018-06-05T03:04:30.876Z,78.59
2018-06-05T03:07:00.323Z,79.34
2018-06-05T03:09:29.278Z,79.64
2018-06-05T03:11:58.444Z,79.18
2018-06-05T03:14:27.997Z,77.91
2018-06-05T03:16:57.013Z,77.32
2018-06-05T03:19:26.016Z,76.72
2018-06-05T03:21:55.031Z,75.94
2018-06-05T03:24:24.121Z,75.40
2018-06-05T03:26:53.122Z,74.93
2018-06-05T03:29:22.332Z,74.33
2018-06-05T03:31:51.348Z,74.36
2018-06-05T03:34:20.495Z,73.59
2018-06-05T03:36:50.247Z,73.08
2018-06-05T03:39:19.188Z,73.42
2018-06-05T03:41:48.336Z,72.72
2018-06-05T03:44:17.943Z,71.66
2018-06-05T03:46:46.913Z,71.02
2018-06-05T03:49:16.747Z,70.08
2018-06-05T03:51:46.099Z,70.10
2018-06-05T03:54:15.167Z,69.38
2018-06-05T03:56:44.170Z,68.32
2018-06-05T03:59:13.267Z,67.17
2018-06-05T04:01:42.233Z,67.71
2018-06-05T04:04:11.174Z,67.12
2018-06-05T04:06:40.338Z,65.98
2018-06-05T04:09:09.446Z,65.21
2018-06-05T04:11:38.420Z,64.38
2018-06-05T04:14:07.992Z,63.29
2018-06-05T04:16:37.036Z,62.83
2018-06-05T04:19:06.239Z,61.35
2018-06-05T04:21:35.215Z,61.18
2018-06-05T04:24:04.310Z,60.18
2018-06-05T04:26:33.511Z,59.27
2018-06-05T04:29:02.514Z,58.74
2018-06-05T04:31:31.649Z,57.34
2018-06-05T04:34:00.716Z,57.74
2018-06-05T04:36:30.375Z,56.96
2018-06-05T04:38:59.401Z,55.38
2018-06-05T04:41:28.388Z,55.59
2018-06-05T04:43:57.810Z,55.05
2018-06-05T04:46:26.782Z,55.42
2018-06-05T04:48:55.963Z,55.71
2018-06-05T04:51:25.303Z,54.28
2018-06-05T04:53:54.278Z,55.04
2018-06-05T04:56:23.408Z,54.38
2018-06-05T04:58:52.982Z,54.79
2018-06-05T05:01:21.896Z,55.13
2018-06-05T05:03:50.992Z,54.97
2018-06-05T05:06:20.040Z,54.77
2018-06-05T05:08:49.083Z,54.26
2018-06-05T05:11:18.642Z,53.66
2018-06-05T05:13:48.145Z,53.21
2018-06-05T05:16:17.089Z,50.65
2018-06-05T05:18:46.285Z,51.74
2018-06-05T05:21:15.823Z,50.76
2018-06-05T05:23:44.688Z,51.60
2018-06-05T05:26:13.656Z,51.06
2018-06-05T05:28:43.127Z,48.47
2018-06-05T05:31:12.179Z,46.25
2018-06-05T05:33:41.198Z,46.62
2018-06-05T05:36:10.376Z,44.75
2018-06-05T05:38:39.250Z,43.78
2018-06-05T05:41:08.216Z,43.74
2018-06-05T05:43:37.916Z,44.00
2018-06-05T05:46:07.024Z,44.08
2018-06-05T05:48:36.167Z,44.16
2018-06-05T05:51:05.212Z,43.99
2018-06-05T05:53:34.446Z,43.88
2018-06-05T05:56:03.352Z,44.46
2018-06-05T05:58:33.027Z,44.16
2018-06-05T06:01:01.917Z,43.43
2018-06-05T06:03:30.812Z,42.35
2018-06-05T06:05:59.676Z,42.08
2018-06-05T06:08:28.553Z,41.80
2018-06-05T06:10:57.477Z,41.34
2018-06-05T06:13:26.804Z,41.31
2018-06-05T06:15:55.872Z,43.43
2018-06-05T06:18:24.841Z,42.98
2018-06-05T06:20:54.230Z,43.03
2018-06-05T06:23:23.211Z,44.43
2018-06-05T06:25:52.292Z,45.21
2018-06-05T06:28:21.639Z,45.70
2018-06-05T06:30:50.720Z,45.25
2018-06-05T06:33:19.854Z,46.60
2018-06-05T06:35:48.917Z,47.20
2018-06-05T06:38:17.916Z,48.53
2018-06-05T06:40:46.796Z,47.93
2018-06-05T06:43:15.743Z,48.41
2018-06-05T06:45:44.898Z,47.97
2018-06-05T06:54:58.651Z,47.09
2018-06-05T06:57:27.725Z,47.50
2018-06-05T06:59:56.862Z,46.92
2018-06-05T07:02:26.226Z,47.73
2018-06-05T07:04:55.273Z,46.49
2018-06-05T07:07:24.231Z,46.43
2018-06-05T07:09:53.512Z,46.30
2018-06-05T07:12:22.470Z,46.35
2018-06-05T07:14:51.558Z,46.32
2018-06-05T07:17:20.691Z,44.22
2018-06-05T07:19:49.734Z,43.00
2018-06-05T07:22:18.866Z,43.83
2018-06-05T07:24:47.984Z,44.60
2018-06-05T07:27:17.039Z,45.25
2018-06-05T07:29:46.107Z,44.86
2018-06-05T07:32:16.060Z,44.72
2018-06-05T07:34:45.077Z,45.29
2018-06-05T07:37:14.177Z,44.75
2018-06-05T07:39:43.822Z,44.85
2018-06-05T07:42:12.700Z,44.56
2018-06-05T07:44:41.813Z,43.78
2018-06-05T07:47:11.102Z,43.95
2018-06-05T07:49:40.096Z,44.26
2018-06-05T07:52:09.199Z,44.74
2018-06-05T07:54:38.387Z,43.87
2018-06-05T07:57:07.369Z,43.68
2018-06-05T07:59:36.418Z,43.46
2018-06-05T08:02:05.654Z,43.70
2018-06-05T08:04:34.598Z,43.65
2018-06-05T08:07:03.758Z,42.28
2018-06-05T08:09:32.911Z,44.50
2018-06-05T08:12:01.940Z,43.39
2018-06-05T08:14:31.016Z,42.55
2018-06-05T08:17:00.605Z,42.30
2018-06-05T08:19:29.684Z,43.02
2018-06-05T08:21:58.676Z,42.96
2018-06-05T08:24:27.801Z,43.58
2018-06-05T08:26:56.915Z,41.17
2018-06-05T08:29:26.005Z,42.33
2018-06-05T08:31:55.154Z,41.31
2018-06-05T08:34:24.120Z,40.54
2018-06-05T08:36:53.267Z,42.12
2018-06-05T08:39:22.877Z,40.58
2018-06-05T08:41:51.841Z,39.63
2018-06-05T08:44:20.850Z,39.76
2018-06-05T08:46:50.140Z,39.82
2018-06-05T08:49:19.278Z,39.88
2018-06-05T08:51:48.258Z,39.26
2018-06-05T08:54:17.519Z,40.35
2018-06-05T08:56:46.513Z,39.47
2018-06-05T08:59:15.420Z,38.67
2018-06-05T09:01:44.483Z,38.11
2018-06-05T09:04:13.487Z,37.61
2018-06-05T09:06:42.742Z,35.87
2018-06-05T09:09:11.925Z,35.94
2018-06-05T09:11:41.005Z,36.15
2018-06-05T09:14:10.076Z,36.40
2018-06-05T09:16:39.146Z,37.66
2018-06-05T09:19:08.299Z,37.97
2018-06-05T09:21:37.307Z,36.17
2018-06-05T09:24:06.488Z,35.10
2018-06-05T09:26:35.460Z,34.63
2018-06-05T09:29:04.404Z,35.83
2018-06-05T09:31:33.516Z,34.91
2018-06-05T09:34:02.585Z,36.04
2018-06-05T09:36:31.608Z,35.34
2018-06-05T09:39:00.856Z,34.78
2018-06-05T09:41:29.858Z,34.13
2018-06-05T09:43:58.946Z,34.79
2018-06-05T09:46:28.495Z,34.86
2018-06-05T09:48:57.527Z,34.56
2018-06-05T09:51:26.624Z,33.80
2018-06-05T09:53:56.062Z,34.86
2018-06-05T09:56:25.076Z,34.47
2018-06-05T09:58:54.048Z,32.62
2018-06-05T10:01:23.148Z,34.50
2018-06-05T10:03:52.077Z,34.72
2018-06-05T10:06:20.953Z,33.20
2018-06-05T10:08:50.394Z,33.86
2018-06-05T10:11:20.465Z,32.62
2018-06-05T10:13:49.514Z,32.45
2018-06-05T10:16:18.682Z,32.85
2018-06-05T10:18:47.734Z,34.03
2018-06-05T10:21:16.710Z,34.76
2018-06-05T10:23:45.740Z,33.64
2018-06-05T10:26:14.772Z,33.61
2018-06-05T10:28:43.846Z,34.32
2018-06-05T10:31:13.061Z,32.09
2018-06-05T10:33:42.006Z,31.83
2018-06-05T10:36:11.184Z,32.45
2018-06-05T10:38:40.729Z,32.43
2018-06-05T10:41:09.773Z,32.42
2018-06-05T10:43:38.870Z,31.18
2018-06-05T10:46:07.996Z,30.09
2018-06-05T10:48:37.067Z,31.00
2018-06-05T10:51:06.168Z,30.72
2018-06-05T10:53:35.730Z,31.18
2018-06-05T10:56:04.733Z,31.05
2018-06-05T10:58:33.843Z,31.54
2018-06-05T11:01:02.882Z,31.39
2018-06-05T11:03:32.006Z,31.45
2018-06-05T11:06:01.111Z,30.51
2018-06-05T11:08:30.222Z,31.18
2018-06-05T11:10:59.215Z,30.66
2018-06-05T11:13:28.133Z,31.24
2018-06-05T11:15:57.568Z,31.45
2018-06-05T11:18:26.556Z,30.69
2018-06-05T11:20:55.565Z,29.79
2018-06-05T11:23:24.828Z,30.41
2018-06-05T11:25:53.952Z,29.93
2018-06-05T11:28:23.010Z,30.03
2018-06-05T11:30:52.328Z,31.17
2018-06-05T11:33:21.265Z,30.96
2018-06-05T11:35:50.410Z,30.64
2018-06-05T11:38:19.825Z,28.91
2018-06-05T11:40:48.868Z,29.92
2018-06-05T11:43:17.914Z,29.74
2018-06-05T11:45:47.042Z,28.55
2018-06-05T11:48:16.185Z,28.38
2018-06-05T11:50:45.036Z,28.82
2018-06-05T11:53:14.150Z,29.00
2018-06-05T11:55:43.174Z,28.78
2018-06-05T11:58:12.252Z,28.96
2018-06-05T12:00:41.393Z,29.07
2018-06-05T12:03:10.389Z,28.67
2018-06-05T12:05:39.443Z,28.44
2018-06-05T12:08:09.110Z,29.23
2018-06-05T12:10:38.001Z,27.52
2018-06-05T12:13:07.063Z,27.03
2018-06-05T12:15:36.600Z,26.31
2018-06-05T12:18:05.661Z,27.52
2018-06-05T12:20:34.726Z,26.55
2018-06-05T12:23:05.128Z,26.49
2018-06-05T12:25:34.181Z,26.72
2018-06-05T12:28:03.191Z,27.13
2018-06-05T12:30:32.314Z,28.08
2018-06-05T12:33:01.455Z,27.79
2018-06-05T12:35:30.504Z,26.84
2018-06-05T12:37:59.566Z,26.64
2018-06-05T12:40:28.691Z,26.66
2018-06-05T12:42:57.661Z,27.22
2018-06-05T12:45:26.950Z,27.09
2018-06-05T12:47:56.016Z,26.83
2018-06-05T12:50:25.041Z,27.22
2018-06-05T12:52:54.281Z,27.86
2018-06-05T12:55:23.424Z,29.00
2018-06-05T12:57:52.529Z,27.73
2018-06-05T13:00:21.914Z,28.85
2018-06-05T13:02:50.853Z,27.47
2018-06-05T13:05:19.807Z,26.10
2018-06-05T13:07:49.188Z,27.16
2018-06-05T13:10:18.125Z,27.00
2018-06-05T13:12:47.258Z,26.29
2018-06-05T13:15:16.352Z,26.32
2018-06-05T13:17:45.397Z,25.84
2018-06-05T13:20:14.237Z,25.85
2018-06-05T13:23:46.422Z,26.94
2018-06-05T13:26:15.362Z,27.52
2018-06-05T13:28:44.377Z,26.21
2018-06-05T13:31:13.412Z,25.33
2018-06-05T13:33:42.477Z,25.44
2018-06-05T13:36:11.564Z,26.59
2018-06-05T13:38:40.696Z,25.58
2018-06-05T13:41:09.740Z,25.77
2018-06-05T13:43:38.916Z,26.87
2018-06-05T13:46:08.277Z,26.52
2018-06-05T13:48:37.241Z,26.55
2018-06-05T13:51:06.440Z,27.64
2018-06-05T13:53:35.793Z,27.89
2018-06-05T13:56:04.932Z,28.25
2018-06-05T13:58:33.988Z,27.55
2018-06-05T14:01:03.101Z,28.60
2018-06-05T14:03:32.171Z,29.09
2018-06-05T14:06:01.337Z,29.00
2018-06-05T14:08:30.428Z,31.06
2018-06-05T14:10:59.500Z,31.47
2018-06-05T14:13:28.496Z,33.14
2018-06-05T14:15:57.754Z,33.34
2018-06-05T14:18:26.664Z,33.92
2018-06-05T14:20:55.830Z,34.49
2018-06-05T14:23:25.030Z,34.53
2018-06-05T14:25:54.060Z,34.99
2018-06-05T14:28:23.191Z,34.29
2018-06-05T14:30:52.553Z,33.28
2018-06-05T14:33:21.598Z,34.74
2018-06-05T14:35:50.618Z,33.95
2018-06-05T14:38:19.704Z,34.33
2018-06-05T14:40:48.719Z,33.63
2018-06-05T14:43:17.589Z,33.70
2018-06-05T14:45:46.906Z,34.87
2018-06-05T14:48:16.072Z,37.39
2018-06-05T14:50:45.160Z,41.20
2018-06-05T14:53:14.366Z,43.58
2018-06-05T14:55:43.556Z,44.87
2018-06-05T14:58:12.602Z,45.19
2018-06-05T15:00:42.283Z,44.29
2018-06-05T15:03:11.239Z,43.34
2018-06-05T15:05:40.423Z,42.41
2018-06-05T15:08:09.751Z,42.55
2018-06-05T15:10:38.602Z,42.60
2018-06-05T15:13:07.606Z,41.62
2018-06-05T15:15:37.032Z,41.09
2018-06-05T15:18:06.158Z,41.85
2018-06-05T15:20:34.951Z,41.59
2018-06-05T15:23:04.011Z,42.42
2018-06-05T15:25:33.161Z,41.28
2018-06-05T15:28:02.241Z,41.41
2018-06-05T15:30:31.598Z,42.08
2018-06-05T15:33:00.506Z,41.37
2018-06-05T15:35:29.432Z,43.21
2018-06-05T15:37:59.057Z,42.46
2018-06-05T15:40:28.039Z,43.01
2018-06-05T15:42:57.137Z,42.67
2018-06-05T15:45:26.506Z,42.01
2018-06-05T15:47:55.614Z,42.16
2018-06-05T15:50:24.563Z,42.65
2018-06-05T15:52:54.043Z,44.00
2018-06-05T15:55:23.128Z,44.27
2018-06-05T15:57:52.025Z,45.45
2018-06-05T16:00:21.118Z,47.07
2018-06-05T16:02:50.154Z,48.07
2018-06-05T16:05:19.326Z,48.35
2018-06-05T16:07:48.442Z,47.98
2018-06-05T16:10:17.663Z,49.41
2018-06-05T16:12:46.856Z,50.23
2018-06-05T16:15:16.480Z,50.72
2018-06-05T16:17:45.424Z,50.53
2018-06-05T16:20:14.592Z,50.03
2018-06-05T16:22:44.172Z,50.58
2018-06-05T16:25:13.129Z,50.52
2018-06-05T16:27:42.287Z,48.63
2018-06-05T16:30:11.654Z,47.49
2018-06-05T16:32:40.721Z,47.17
2018-06-05T16:35:09.730Z,46.78
2018-06-05T16:37:39.168Z,46.26
2018-06-05T16:40:08.140Z,46.58
2018-06-05T16:42:37.189Z,46.07
2018-06-05T16:45:06.285Z,47.69
2018-06-05T16:47:35.463Z,48.31
2018-06-05T16:50:04.480Z,48.14
2018-06-05T16:52:33.494Z,49.80
2018-06-05T16:55:02.412Z,49.42
2018-06-05T16:57:31.247Z,50.89
2018-06-05T17:00:00.308Z,51.98
2018-06-05T17:02:29.293Z,50.93
2018-06-05T17:04:58.194Z,52.42
2018-06-05T17:07:27.637Z,52.98
2018-06-05T17:09:56.581Z,52.85
2018-06-05T17:12:25.694Z,52.75
2018-06-05T17:14:55.130Z,53.82
2018-06-05T17:17:24.042Z,54.94
2018-06-05T17:19:53.031Z,55.70
2018-06-05T17:22:22.622Z,55.43
2018-06-05T17:24:51.854Z,55.41
2018-06-05T17:27:20.932Z,56.12
2018-06-05T17:29:50.522Z,55.72
2018-06-05T17:32:19.454Z,54.90
2018-06-05T17:34:48.572Z,54.47
2018-06-05T17:37:17.994Z,54.98
2018-06-05T17:39:47.027Z,54.72
2018-06-05T17:42:15.968Z,53.99
2018-06-05T17:44:45.513Z,54.52
2018-06-05T17:47:14.480Z,54.11
2018-06-05T17:49:43.448Z,54.37
2018-06-05T17:52:12.955Z,54.72
2018-06-05T17:54:41.864Z,54.29
2018-06-05T17:57:10.793Z,54.62
2018-06-05T17:59:39.911Z,55.21
2018-06-05T18:02:08.980Z,56.26
2018-06-05T18:04:38.131Z,56.28
2018-06-05T18:07:07.499Z,57.27
2018-06-05T18:09:36.480Z,57.39
2018-06-05T18:12:05.599Z,57.83
2018-06-05T18:14:35.008Z,58.42
2018-06-05T18:17:03.940Z,58.52
2018-06-05T18:19:33.032Z,58.64
2018-06-05T18:22:02.467Z,58.63
2018-06-05T18:24:31.448Z,58.50
2018-06-05T18:27:00.404Z,58.49
2018-06-05T18:29:29.350Z,58.60
2018-06-05T18:31:58.248Z,58.60
2018-06-05T18:34:27.237Z,58.41
2018-06-05T18:36:56.634Z,58.37
2018-06-05T18:39:25.601Z,58.70
2018-06-05T18:41:54.740Z,59.22
2018-06-05T18:44:23.800Z,59.12
2018-06-05T18:46:52.972Z,59.69
2018-06-05T18:49:21.864Z,59.73
2018-06-05T18:51:51.230Z,59.66
2018-06-05T18:54:20.122Z,59.12
2018-06-05T18:56:49.236Z,59.00
2018-06-05T18:59:18.764Z,58.64
2018-06-05T19:01:47.759Z,58.84
2018-06-05T19:04:16.726Z,58.81
2018-06-05T19:06:45.852Z,58.96
2018-06-05T19:09:14.878Z,59.29
2018-06-05T19:11:44.044Z,59.52
2018-06-05T19:14:13.483Z,59.89
2018-06-05T19:16:42.587Z,60.59
2018-06-05T19:19:11.736Z,60.72
2018-06-05T19:21:40.823Z,60.20
2018-06-05T19:24:09.843Z,60.93
2018-06-05T19:26:38.853Z,60.86
2018-06-05T19:29:08.640Z,60.97
2018-06-05T19:31:37.564Z,60.68
2018-06-05T19:34:06.612Z,61.02
2018-06-05T19:36:35.583Z,60.84
2018-06-05T19:39:06.153Z,60.98
2018-06-05T19:41:35.262Z,61.57
2018-06-05T19:44:04.388Z,60.74
2018-06-05T19:46:33.310Z,61.22
2018-06-05T19:49:02.228Z,60.91
2018-06-05T19:51:31.673Z,60.73
2018-06-05T19:54:00.638Z,61.26
2018-06-05T19:56:30.090Z,60.71
2018-06-05T19:58:59.289Z,60.65
2018-06-05T20:01:28.365Z,60.95
2018-06-05T20:03:57.442Z,60.47
2018-06-05T20:06:26.847Z,60.62
2018-06-05T20:08:55.701Z,60.86
2018-06-05T20:11:24.668Z,61.59
2018-06-05T20:13:53.735Z,62.24
2018-06-05T20:16:22.751Z,62.16
2018-06-05T20:18:51.728Z,61.97
2018-06-05T20:21:20.602Z,62.07
2018-06-05T20:23:49.493Z,62.47
2018-06-05T20:26:18.507Z,62.33
2018-06-05T20:28:47.870Z,61.85
2018-06-05T20:31:16.917Z,61.82
2018-06-05T20:33:46.031Z,62.73
2018-06-05T20:36:15.114Z,61.77
2018-06-05T20:38:44.222Z,62.29
2018-06-05T20:41:13.339Z,62.09
2018-06-05T20:43:42.545Z,62.71
2018-06-05T20:46:11.370Z,63.59
2018-06-05T20:48:40.458Z,64.83
2018-06-05T20:51:09.738Z,65.75
2018-06-05T20:53:38.835Z,67.36
2018-06-05T20:56:07.871Z,68.07
2018-06-05T20:58:37.053Z,69.61
2018-06-05T21:01:06.044Z,69.74
2018-06-05T21:03:35.044Z,70.18
2018-06-05T21:06:04.025Z,71.22
2018-06-05T21:08:33.044Z,71.22
2018-06-05T21:11:02.057Z,71.17
2018-06-05T21:13:31.049Z,71.40
2018-06-05T21:15:59.962Z,71.58
2018-06-05T21:18:29.046Z,71.78
2018-06-05T21:20:58.702Z,72.46
2018-06-05T21:23:27.719Z,71.83
2018-06-05T21:25:56.754Z,71.64
2018-06-05T21:28:25.919Z,71.66
2018-06-05T21:30:54.901Z,71.87
2018-06-05T21:33:23.745Z,72.25
2018-06-05T21:35:53.249Z,72.16
2018-06-05T21:38:22.224Z,72.70
2018-06-05T21:40:51.229Z,72.42
2018-06-05T21:43:20.270Z,72.53
2018-06-05T21:45:49.235Z,72.31
2018-06-05T21:48:18.132Z,72.63
2018-06-05T21:50:47.189Z,73.21
2018-06-05T21:53:16.107Z,73.17
2018-06-05T21:55:44.925Z,73.80
2018-06-05T21:58:14.460Z,74.23
2018-06-05T22:00:43.498Z,74.42
2018-06-05T22:03:12.519Z,74.11
2018-06-05T22:05:41.576Z,73.88
2018-06-05T22:08:10.533Z,73.56
2018-06-05T22:10:39.558Z,73.51
2018-06-05T22:13:08.761Z,74.48
2018-06-05T22:15:37.789Z,75.58
2018-06-05T22:18:06.963Z,76.75
2018-06-05T22:20:35.953Z,76.92
2018-06-05T22:23:04.978Z,77.23
2018-06-05T22:25:33.934Z,77.32
2018-06-05T22:28:03.330Z,79.63
2018-06-05T22:30:32.284Z,80.31
2018-06-05T22:33:01.159Z,80.90
2018-06-05T22:35:30.220Z,82.41
2018-06-05T22:37:59.225Z,81.65
2018-06-05T22:40:28.436Z,82.70
2018-06-05T22:42:57.379Z,83.69
2018-06-05T22:45:26.490Z,84.39
2018-06-05T22:47:55.578Z,84.95
2018-06-05T22:50:24.719Z,85.53
2018-06-05T22:52:53.802Z,85.84
2018-06-05T22:55:22.797Z,85.52
2018-06-05T22:57:52.093Z,85.50
2018-06-05T23:00:27.898Z,85.28
2018-06-05T23:02:56.956Z,85.84
2018-06-05T23:05:25.946Z,85.72
2018-06-05T23:07:54.938Z,85.52
2018-06-05T23:10:24.504Z,85.26
2018-06-05T23:12:53.436Z,84.90
2018-06-05T23:15:22.378Z,85.00
2018-06-05T23:17:51.448Z,85.06
2018-06-05T23:20:20.568Z,84.41
2018-06-05T23:22:49.599Z,83.95
2018-06-05T23:25:19.067Z,83.49
2018-06-05T23:27:48.100Z,83.21
2018-06-05T23:30:17.205Z,83.11
2018-06-05T23:34:15.861Z,83.05
2018-06-05T23:36:44.898Z,82.69
2018-06-05T23:39:13.906Z,83.58
2018-06-05T23:41:43.036Z,83.60
2018-06-05T23:44:12.095Z,83.26
2018-06-05T23:46:41.128Z,83.94
2018-06-05T23:49:10.166Z,83.83
2018-06-05T23:51:39.126Z,84.20
2018-06-05T23:54:07.925Z,84.28
2018-06-05T23:56:37.032Z,84.61
2018-06-05T23:59:05.958Z,83.60
